Airfield :
LOGIN :

Register | Disclaimer

   EN    FR    IT 

 










Legend :    VFR   Marginal VFR   IFR   Intensive IFR   Very Intensive IFR
Visi :
Ceiling :
>= 8 km
>= 3000ft
5 to 8 km
1000 to 3000 ft
1500m to 5 km
500 to 1000 ft
800 to 1500m
200 to 500 ft
< 800m
< 200 ft
Symbols :   Thunderstorms  Fog  Heavy snow  Heavy precipitations  Wind > 20 kt
SIGMETs :     Misc.  Thunderstorms  Icing  Turbulence  Mountain Waves  Volcanic Ashes







- Airport Elevation : 375 ft
- IATA code : MST


EHBK - Maastricht Aachen

CURRENT METAR :
  • 250025Z AUTO 21015KT 180V240 9999 FEW046 15/08 Q1009

EXPIRED METARs :
  • 242355Z AUTO 20012KT 9999 NSC 15/09 Q1010
  • 242325Z AUTO 20011KT 9999 NSC 15/09 Q1010
  • 242255Z AUTO 19012KT 9999 NSC 15/09 Q1010
  • 242225Z AUTO 20009KT 9999 BKN044 15/10 Q1011
  • 242155Z AUTO 20010KT 9999 SCT044 16/10 Q1011

TAF TAF EHBK
Valid from the 25 at 00:00 until the 26 at 06:00 UTC


242304Z 2500/2606 20010KT 9999 SCT030
BECMG 2502/2505 25012G22KT
PROB40
TEMPO 2505/2510 7000 -RA -SHRA BKN012 FEW018CB
PROB30
TEMPO 2510/2518 26015G25KT 6000 SHRA SCT020CB BKN025
BECMG 2517/2520 24011KT
PROB30
TEMPO 2600/2606 6000 SHRA BKN012 SCT030CB
No reported NOTAMs for that airfield.



MET'MAP, your aeronautical weather chart ! - Copyright ORBIFLY December 2007 - Disclaimer

ORBIFLY MET'MAP TEAM :

Programming & Development : Alexandra Zaïnal
Concept & Development : Baudouin d'Aumeries
Co-Development & Prog : Marc-Olivier Méhu
Technical & hardware support : Manuel Goepfert

Contact : metmap@orbifly.com




SOURCES & CREDITS :

   NOAA